Terminal Aerodrome Forecast
Issued by NWS Lake Charles, LA

Home | Current Version | Previous Version | Text Only | Print | Product List | Glossary On
Versions: 1 2 3 4 5 6 7 8 9 10 11 12 13
000
FTUS44 KLCH 271300 AAA
TAFBPT
TAF AMD
KBPT 271353Z 2714/2812 11007KT 1SM BR VCSH OVC003
      TEMPO 2714/2716 1/2SM FG VV002
     FM271600 14008KT 5SM BR VCTS OVC003CB
      TEMPO 2716/2718 2SM TSRA BR
     FM271800 19010KT 6SM -TSRA BR OVC007CB
     FM280200 34012KT 4SM -RA BR OVC003=

USA.gov is the U.S. government's official web portal to all federal, state and local government web resources and services.